Manton, CA (96059)

5:23 AM PDT on October 01, 2014 (GMT -0700)
Midway | Change Station
CLOSE
Current Station
Personal Weather Station
Location: Shingletown, CA
Elevation: 2200 ft
Nearby Weather Stations

Elev 2200 ft 40.50 °N, 121.97 °W | Updated 24 seconds ago

Clear
Clear
52.9 °F
Feels Like 52.9 °F
N
0.0
Wind Variable Wind from NNW
Gusts 1.0 mph

Today
High -- | Low -- °F
--% Chance of Precip.
Yesterday
High -- | Low -- °F
Precip. -- in
7:03 AM 6:49 PM
Waxing Crescent, 47% visible
Pressure 29.95 in
Visibility 10.0 miles
Clouds Clear
Dew Point 38 °F
Humidity 58%
Rainfall 0.00 in
Snow Depth 0 in , 1 in , 1 in
UV 0 out of 12
Pollen 5.90 out of 12
Air Quality Not available.
Flu Activity Not available.
METAR KRDD 011053Z AUTO 35012G18KT 10SM CLR 18/04 A2996 RMK AO2 SLP142 T01830039

More Conditions Fewer Conditions

Pressure 29.95 in
Visibility 10.0 miles
Clouds Clear
Dew Point 38 °F
Humidity 58%
Rainfall 0.00 in
Snow Depth 0 in , 1 in , 1 in
UV 0 out of 12
Pollen 5.90 out of 12
Air Quality Not available.
Flu Activity Not available.
METAR KRDD 011053Z AUTO 35012G18KT 10SM CLR 18/04 A2996 RMK AO2 SLP142 T01830039

More Conditions Fewer Conditions

10-Day Weather Forecast

Almanac

Astronomy

Oct. 01, 2014 Rise Set
Actual Time 7:03 AM PDT 6:49 PM PDT
Civil Twilight 6:36 AM PDT 7:16 PM PDT
Nautical Twilight 6:05 AM PDT 7:48 PM PDT
Astronomical Twilight 5:33 AM PDT 8:19 PM PDT
Moon 2:10 PM PDT No Moon Set
Length of Visible Light 12h 39m
Length of Day
11h 45m
Tomorrow will be 2m 39s shorter.
Waxing Crescent, 47% of the Moon is Illuminated
Today
Waxing Crescent
Oct 1
First Quarter
Oct 8
Full
Oct 15
Last Quarter
Oct 23
New

Today's Extremes

State Highs State Lows

Community

WunderPhotos

Upload Photos

1,757,916 photos uploaded!

Nearby

Snow Depth

Station Depth Elevation
Blue Lakes 0 in 8000 ft
Tahoe City Cross 0 in 6750 ft
Squaw Valley 0 in 8200 ft
Burnside Lake 1 in 8139 ft
Spratt Creek 1 in 6200 ft

Earthquake Activity

City Distance Mag. Time & Date
No recent earthquake activity has been reported nearby.
Minimum magnitude displayed is 2.5.

Coastal Water Temperatures

Place Temperature
No Stations Reporting

Nearby Weather Stations